Time;durP1;ratioP1;P1;durP2;ratioP2;P2;SDS_P1;SDS_P2;PMS_P1;PMS_P2;Temp;Humidity;BMP_temperature;BMP_pressure;BME280_temperature;BME280_humidity;BME280_pressure;Samples;Min_cycle;Max_cycle;Signal;HPM_P1;HPM_P2
2022/11/21 00:00:45;;;;;;;2.75;1.60;;;;;;;;;;5079478;28;20048;-81
2022/11/21 00:03:13;;;;;;;2.25;1.85;;;;;;;;;;5098541;28;20482;-80
2022/11/21 00:05:44;;;;;;;1.60;1.50;;;;;;;;;;5079413;28;20044;-80
2022/11/21 00:08:13;;;;;;;4.28;1.20;;;;;;;;;;5097977;28;20054;-82
2022/11/21 00:10:41;;;;;;;1.55;1.45;;;;;;;;;;5079794;28;20573;-81
2022/11/21 00:13:12;;;;;;;1.02;1.02;;;;;;;;;;5098263;28;20059;-82
2022/11/21 00:15:39;;;;;;;1.27;1.17;;;;;;;;;;5096158;28;20048;-82
2022/11/21 00:18:06;;;;;;;1.85;1.50;;;;;;;;;;5079361;28;20048;-82
2022/11/21 00:20:35;;;;;;;0.70;0.70;;;;;;;;;;5097505;28;20135;-81
2022/11/21 00:23:03;;;;;;;1.20;1.20;;;;;;;;;;5079131;28;20080;-80
2022/11/21 00:25:30;;;;;;;0.90;0.90;;;;;;;;;;5096698;28;20044;-82
2022/11/21 00:27:57;;;;;;;1.08;1.08;;;;;;;;;;5097241;28;20044;-81
2022/11/21 00:30:25;;;;;;;1.00;1.00;;;;;;;;;;5097314;28;20055;-80
2022/11/21 00:32:52;;;;;;;1.20;1.17;;;;;;;;;;5096793;28;20052;-81
2022/11/21 00:35:19;;;;;;;1.13;1.13;;;;;;;;;;5097318;28;20051;-82
2022/11/21 00:37:47;;;;;;;1.10;1.10;;;;;;;;;;5096931;28;20417;-81
2022/11/21 00:40:14;;;;;;;0.95;0.95;;;;;;;;;;5096987;28;20047;-82
2022/11/21 00:42:42;;;;;;;1.20;1.00;;;;;;;;;;5078033;28;20418;-81
2022/11/21 00:45:09;;;;;;;0.75;0.75;;;;;;;;;;5095584;28;20056;-80
2022/11/21 00:47:36;;;;;;;1.33;0.80;;;;;;;;;;5096840;28;20518;-81
2022/11/21 00:50:03;;;;;;;2.38;1.00;;;;;;;;;;5097518;28;20055;-81
2022/11/21 00:52:31;;;;;;;1.50;1.00;;;;;;;;;;5079446;28;20498;-81
2022/11/21 00:54:58;;;;;;;1.00;1.00;;;;;;;;;;5097712;28;20517;-80
2022/11/21 00:57:25;;;;;;;1.58;1.48;;;;;;;;;;5079326;28;20051;-82
2022/11/21 00:59:52;;;;;;;2.53;1.20;;;;;;;;;;5097665;28;20054;-81
2022/11/21 01:02:19;;;;;;;1.55;1.45;;;;;;;;;;5079678;28;20048;-82
2022/11/21 01:04:46;;;;;;;1.60;1.50;;;;;;;;;;5080348;28;20121;-82
2022/11/21 01:07:14;;;;;;;1.92;1.60;;;;;;;;;;5098149;28;20119;-82
2022/11/21 01:09:41;;;;;;;3.00;1.60;;;;;;;;;;5098000;28;20052;-82
2022/11/21 01:12:08;;;;;;;1.83;1.70;;;;;;;;;;5097543;28;20131;-82
2022/11/21 01:14:35;;;;;;;2.03;1.92;;;;;;;;;;5079557;28;20048;-82
2022/11/21 01:17:03;;;;;;;2.08;1.58;;;;;;;;;;5080438;28;20052;-82
2022/11/21 01:19:30;;;;;;;1.23;1.23;;;;;;;;;;5080095;28;20051;-82
2022/11/21 01:21:57;;;;;;;2.53;1.70;;;;;;;;;;5098374;28;20585;-82
2022/11/21 01:24:24;;;;;;;1.50;1.40;;;;;;;;;;5080187;28;20052;-82
2022/11/21 01:26:53;;;;;;;1.40;1.20;;;;;;;;;;5082378;28;20403;-82
2022/11/21 01:29:20;;;;;;;1.30;1.15;;;;;;;;;;5100346;28;20051;-82
2022/11/21 01:31:48;;;;;;;1.23;1.23;;;;;;;;;;5098901;28;20430;-80
2022/11/21 01:34:16;;;;;;;1.90;1.00;;;;;;;;;;5098779;28;20048;-82
2022/11/21 01:36:43;;;;;;;0.75;0.75;;;;;;;;;;5098383;28;20413;-82
2022/11/21 01:39:10;;;;;;;1.00;0.80;;;;;;;;;;5098343;28;20044;-83
2022/11/21 01:41:39;;;;;;;0.55;0.55;;;;;;;;;;5098606;28;20421;-82
2022/11/21 01:44:12;;;;;;;0.52;0.40;;;;;;;;;;5079307;28;20055;-82
2022/11/21 01:46:39;;;;;;;0.60;0.50;;;;;;;;;;5098049;28;20490;-83
2022/11/21 01:49:12;;;;;;;0.43;0.43;;;;;;;;;;5079475;28;20055;-82
2022/11/21 01:51:57;;;;;;;0.45;0.45;;;;;;;;;;5097519;28;20051;-82
2022/11/21 01:54:27;;;;;;;0.20;0.20;;;;;;;;;;5093842;28;20052;-82
2022/11/21 01:57:01;;;;;;;0.55;0.30;;;;;;;;;;5076229;28;20101;-82
2022/11/21 01:59:34;;;;;;;0.30;0.30;;;;;;;;;;5094033;28;20052;-82
2022/11/21 02:02:02;;;;;;;0.40;0.40;;;;;;;;;;5079639;28;20058;-81
2022/11/21 02:04:31;;;;;;;0.30;0.30;;;;;;;;;;5078583;28;20044;-81
2022/11/21 02:06:59;;;;;;;0.20;0.20;;;;;;;;;;5098407;28;20054;-82
2022/11/21 02:09:27;;;;;;;0.20;0.20;;;;;;;;;;5099056;28;20040;-83
2022/11/21 02:11:55;;;;;;;0.40;0.30;;;;;;;;;;5080407;28;20040;-82
2022/11/21 02:14:22;;;;;;;0.20;0.20;;;;;;;;;;5098210;28;20048;-82
2022/11/21 02:16:50;;;;;;;0.20;0.20;;;;;;;;;;5081035;28;20058;-82
2022/11/21 02:19:29;;;;;;;0.57;0.20;;;;;;;;;;5081009;28;20058;-82
2022/11/21 02:22:01;;;;;;;1.02;0.20;;;;;;;;;;5081057;28;20068;-83
2022/11/21 02:24:32;;;;;;;0.35;0.35;;;;;;;;;;5081002;28;20040;-83
2022/11/21 02:27:00;;;;;;;0.30;0.30;;;;;;;;;;5099318;28;20047;-82
2022/11/21 02:29:27;;;;;;;0.30;0.25;;;;;;;;;;5081667;28;20099;-82
2022/11/21 02:31:54;;;;;;;0.22;0.10;;;;;;;;;;5082260;28;20055;-82
2022/11/21 02:34:21;;;;;;;0.30;0.20;;;;;;;;;;5099587;28;20051;-82
2022/11/21 02:36:48;;;;;;;0.30;0.30;;;;;;;;;;5099547;28;20138;-82
2022/11/21 02:39:19;;;;;;;0.20;0.20;;;;;;;;;;5095734;28;20518;-81
2022/11/21 02:41:54;;;;;;;0.20;0.20;;;;;;;;;;5093918;28;20485;-81
2022/11/21 02:44:27;;;;;;;0.30;0.30;;;;;;;;;;5075423;28;20052;-82
2022/11/21 02:46:54;;;;;;;0.32;0.32;;;;;;;;;;5093763;28;20558;-82
2022/11/21 02:49:27;;;;;;;0.40;0.20;;;;;;;;;;5075844;28;20041;-81
2022/11/21 02:51:54;;;;;;;1.00;0.20;;;;;;;;;;5075554;28;20075;-81
2022/11/21 02:54:21;;;;;;;0.10;0.10;;;;;;;;;;5075458;28;20491;-81
2022/11/21 02:56:49;;;;;;;0.22;0.20;;;;;;;;;;5075899;28;20052;-81
2022/11/21 02:59:16;;;;;;;1.08;0.20;;;;;;;;;;5075821;28;20127;-82
2022/11/21 03:01:43;;;;;;;0.68;0.20;;;;;;;;;;5075730;28;20495;-81
2022/11/21 03:04:10;;;;;;;0.10;0.10;;;;;;;;;;5093452;28;20044;-82
2022/11/21 03:06:37;;;;;;;0.20;0.20;;;;;;;;;;5093676;28;20123;-82
2022/11/21 03:09:05;;;;;;;1.65;0.50;;;;;;;;;;5093513;28;20048;-81
2022/11/21 03:11:32;;;;;;;0.55;0.30;;;;;;;;;;5075420;28;20391;-81
2022/11/21 03:13:59;;;;;;;0.77;0.52;;;;;;;;;;5093629;28;20604;-82
2022/11/21 03:16:27;;;;;;;0.28;0.28;;;;;;;;;;5093500;28;20131;-81
2022/11/21 03:18:54;;;;;;;0.85;0.40;;;;;;;;;;5093317;28;20131;-82
2022/11/21 03:21:21;;;;;;;0.35;0.35;;;;;;;;;;5095258;28;20516;-81
2022/11/21 03:23:48;;;;;;;2.47;0.57;;;;;;;;;;5075457;28;20048;-81
2022/11/21 03:26:15;;;;;;;0.90;0.77;;;;;;;;;;5092380;28;20047;-82
2022/11/21 03:28:43;;;;;;;0.60;0.60;;;;;;;;;;5092627;28;20046;-82
2022/11/21 03:31:10;;;;;;;1.23;0.80;;;;;;;;;;5074865;28;20413;-81
2022/11/21 03:33:37;;;;;;;1.73;0.40;;;;;;;;;;5093868;28;20048;-82
2022/11/21 03:36:05;;;;;;;0.90;0.90;;;;;;;;;;5093052;28;20062;-82
2022/11/21 03:38:32;;;;;;;0.85;0.68;;;;;;;;;;5093517;28;20044;-81
2022/11/21 03:41:02;;;;;;;2.60;1.27;;;;;;;;;;5093302;28;20044;-81
2022/11/21 03:43:30;;;;;;;2.47;2.38;;;;;;;;;;5075174;28;20051;-82
2022/11/21 03:45:57;;;;;;;5.20;1.10;;;;;;;;;;5074960;28;20044;-82
2022/11/21 03:48:24;;;;;;;1.00;0.90;;;;;;;;;;5093548;28;20040;-82
2022/11/21 03:50:51;;;;;;;1.40;1.30;;;;;;;;;;5096457;28;20483;-81
2022/11/21 03:53:18;;;;;;;2.13;0.55;;;;;;;;;;5096821;28;20052;-82
2022/11/21 03:55:46;;;;;;;4.93;2.17;;;;;;;;;;5096400;28;20135;-82
2022/11/21 03:58:13;;;;;;;5.85;1.50;;;;;;;;;;5096846;28;20050;-82
2022/11/21 04:00:40;;;;;;;2.92;1.30;;;;;;;;;;5078784;28;20048;-82
2022/11/21 04:03:07;;;;;;;3.15;1.48;;;;;;;;;;5078628;28;20520;-81
2022/11/21 04:05:34;;;;;;;1.30;1.20;;;;;;;;;;5096470;28;20052;-82
2022/11/21 04:08:01;;;;;;;1.55;1.30;;;;;;;;;;5078464;28;20040;-82
2022/11/21 04:10:29;;;;;;;1.83;0.90;;;;;;;;;;5096466;28;20040;-82
2022/11/21 04:12:56;;;;;;;1.55;0.90;;;;;;;;;;5078214;28;20048;-81
2022/11/21 04:15:23;;;;;;;2.58;1.30;;;;;;;;;;5078606;28;20509;-82
2022/11/21 04:17:50;;;;;;;3.22;2.70;;;;;;;;;;5096141;28;20044;-81
2022/11/21 04:20:18;;;;;;;5.68;4.18;;;;;;;;;;5097209;28;20508;-82
2022/11/21 04:22:45;;;;;;;10.60;6.30;;;;;;;;;;5085876;28;20591;-82
2022/11/21 04:25:12;;;;;;;7.80;5.60;;;;;;;;;;5085229;28;20050;-82
2022/11/21 04:27:39;;;;;;;7.30;4.70;;;;;;;;;;5101261;28;20050;-82
2022/11/21 04:30:07;;;;;;;7.15;5.90;;;;;;;;;;5100741;28;20058;-82
2022/11/21 04:32:34;;;;;;;8.15;7.10;;;;;;;;;;5082915;28;20052;-82
2022/11/21 04:35:01;;;;;;;9.82;6.47;;;;;;;;;;5100142;28;20134;-82
2022/11/21 04:37:28;;;;;;;6.82;5.38;;;;;;;;;;5099846;28;20048;-82
2022/11/21 04:39:56;;;;;;;4.15;3.75;;;;;;;;;;5099488;28;20139;-82
2022/11/21 04:42:23;;;;;;;3.80;2.28;;;;;;;;;;5082111;28;20059;-82
2022/11/21 04:44:50;;;;;;;2.63;2.42;;;;;;;;;;5116610;22;20093;-90
2022/11/21 04:47:18;;;;;;;5.15;3.92;;;;;;;;;;5098299;28;20043;-90
2022/11/21 04:49:45;;;;;;;4.22;3.42;;;;;;;;;;5098247;28;20051;-90
2022/11/21 04:52:12;;;;;;;4.18;3.13;;;;;;;;;;5098121;28;20066;-91
2022/11/21 04:54:39;;;;;;;3.15;2.83;;;;;;;;;;5098259;28;20054;-90
2022/11/21 04:57:06;;;;;;;4.45;2.85;;;;;;;;;;5098202;28;20059;-90
2022/11/21 04:59:33;;;;;;;2.88;2.42;;;;;;;;;;5098024;28;20495;-90
2022/11/21 05:02:02;;;;;;;5.18;2.50;;;;;;;;;;5097162;28;20108;-90
2022/11/21 05:04:29;;;;;;;3.50;2.42;;;;;;;;;;5097952;28;20054;-91
2022/11/21 05:06:57;;;;;;;3.25;2.28;;;;;;;;;;5097578;28;20043;-89
2022/11/21 05:09:24;;;;;;;4.43;3.30;;;;;;;;;;5097764;28;20058;-90
2022/11/21 05:14:37;;;;;;;7.70;3.17;;;;;;;;;;5115468;28;20047;-90
2022/11/21 05:17:07;;;;;;;6.85;3.35;;;;;;;;;;5098183;28;20047;-89
2022/11/21 05:19:34;;;;;;;6.35;3.95;;;;;;;;;;5115395;28;20052;-90
2022/11/21 05:22:01;;;;;;;9.80;6.57;;;;;;;;;;5097712;28;20055;-90
2022/11/21 05:24:28;;;;;;;15.40;7.88;;;;;;;;;;5097383;28;20047;-89
2022/11/21 05:26:56;;;;;;;9.95;6.60;;;;;;;;;;5097469;28;20047;-90
2022/11/21 05:29:23;;;;;;;20.00;6.75;;;;;;;;;;5097568;28;20069;-90
2022/11/21 05:31:54;;;;;;;62.60;13.05;;;;;;;;;;5098126;28;20051;-90
2022/11/21 05:34:22;;;;;;;10.88;2.85;;;;;;;;;;5114450;28;20050;-90
2022/11/21 05:36:49;;;;;;;25.77;4.28;;;;;;;;;;5097354;28;20415;-90
2022/11/21 05:39:16;;;;;;;20.30;4.35;;;;;;;;;;5097322;28;20043;-90
2022/11/21 05:41:43;;;;;;;5.30;2.20;;;;;;;;;;5097543;28;20056;-90
2022/11/21 05:44:10;;;;;;;9.52;2.72;;;;;;;;;;5097173;28;20130;-90
2022/11/21 05:46:37;;;;;;;2.17;1.00;;;;;;;;;;5097137;28;20505;-90
2022/11/21 05:49:05;;;;;;;3.08;1.00;;;;;;;;;;5099146;28;20051;-90
2022/11/21 05:51:32;;;;;;;1.00;1.00;;;;;;;;;;5117300;28;20028;-91
2022/11/21 05:53:59;;;;;;;0.70;0.60;;;;;;;;;;5103371;28;20052;-90
2022/11/21 05:56:26;;;;;;;1.48;0.70;;;;;;;;;;5101798;28;20052;-91
2022/11/21 05:58:54;;;;;;;0.93;0.70;;;;;;;;;;5102411;28;20487;-91
2022/11/21 06:04:08;;;;;;;1.00;0.80;;;;;;;;;;5113886;28;20050;-90
2022/11/21 06:06:35;;;;;;;2.80;1.27;;;;;;;;;;5096843;28;20054;-91
2022/11/21 06:09:03;;;;;;;3.83;1.92;;;;;;;;;;5096697;28;20059;-89
2022/11/21 06:11:30;;;;;;;13.02;4.30;;;;;;;;;;5096815;28;20057;-90
2022/11/21 06:13:58;;;;;;;7.10;3.30;;;;;;;;;;5096906;28;20047;-90
2022/11/21 06:16:25;;;;;;;3.92;2.65;;;;;;;;;;5096711;28;20058;-91
2022/11/21 06:18:52;;;;;;;9.85;4.43;;;;;;;;;;5096896;28;20050;-90
2022/11/21 06:21:25;;;;;;;3.20;2.05;;;;;;;;;;5097699;28;20495;-90
2022/11/21 06:23:54;;;;;;;25.92;16.63;;;;;;;;;;5096732;28;20044;-90
2022/11/21 06:26:22;;;;;;;3.00;2.80;;;;;;;;;;5113460;28;20055;-90
2022/11/21 06:28:50;;;;;;;3.60;2.50;;;;;;;;;;5096855;28;20155;-91
2022/11/21 06:31:35;;;;;;;3.65;1.25;;;;;;;;;;5096614;28;20052;-91
2022/11/21 06:34:02;;;;;;;4.97;2.20;;;;;;;;;;5096613;28;20078;-90
2022/11/21 06:36:30;;;;;;;10.27;4.70;;;;;;;;;;5096555;28;20048;-90
2022/11/21 06:38:57;;;;;;;3.58;2.40;;;;;;;;;;5096625;28;20051;-91
2022/11/21 06:41:25;;;;;;;1.38;1.15;;;;;;;;;;5096689;28;20487;-90
2022/11/21 06:43:52;;;;;;;9.18;2.80;;;;;;;;;;5096278;28;20411;-91
2022/11/21 06:46:20;;;;;;;1.13;0.85;;;;;;;;;;5096229;28;20055;-91
2022/11/21 06:48:47;;;;;;;0.47;0.47;;;;;;;;;;5096091;28;20048;-88
2022/11/21 06:51:17;;;;;;;5.20;0.85;;;;;;;;;;5096443;28;20077;-91
2022/11/21 06:53:44;;;;;;;0.52;0.52;;;;;;;;;;5096391;28;20047;-91
2022/11/21 06:56:12;;;;;;;1.52;0.63;;;;;;;;;;5096217;28;20075;-91
2022/11/21 06:58:39;;;;;;;3.83;1.83;;;;;;;;;;5096322;28;20412;-91
2022/11/21 07:01:08;;;;;;;2.88;2.35;;;;;;;;;;5096110;28;20061;-91
2022/11/21 07:03:35;;;;;;;1.50;1.23;;;;;;;;;;5097060;28;20437;-91
2022/11/21 07:06:03;;;;;;;1.00;1.00;;;;;;;;;;5107217;28;20061;-91
2022/11/21 07:08:31;;;;;;;2.05;0.40;;;;;;;;;;5104611;28;20043;-91
2022/11/21 07:11:00;;;;;;;0.70;0.60;;;;;;;;;;5114661;28;20052;-91
2022/11/21 07:13:48;;;;;;;0.57;0.57;;;;;;;;;;5099083;28;20048;-93
2022/11/21 07:16:16;;;;;;;0.63;0.60;;;;;;;;;;5096907;28;20477;-90
2022/11/21 07:18:44;;;;;;;2.70;2.45;;;;;;;;;;5096573;28;20048;-91
2022/11/21 07:21:11;;;;;;;3.05;2.00;;;;;;;;;;5095985;28;20058;-91
2022/11/21 07:23:38;;;;;;;1.40;1.30;;;;;;;;;;5096017;28;20122;-91
2022/11/21 07:26:07;;;;;;;1.33;1.25;;;;;;;;;;5099560;28;20051;-90
2022/11/21 07:28:34;;;;;;;5.05;1.70;;;;;;;;;;5099563;28;20044;-91
2022/11/21 07:31:03;;;;;;;4.45;1.80;;;;;;;;;;5099807;28;20051;-91
2022/11/21 07:33:36;;;;;;;1.40;1.40;;;;;;;;;;5100440;28;20139;-91
2022/11/21 07:36:03;;;;;;;2.50;1.30;;;;;;;;;;5099771;28;20081;-91
2022/11/21 07:38:31;;;;;;;1.42;1.42;;;;;;;;;;5099523;28;20162;-91
2022/11/21 07:40:58;;;;;;;1.85;1.60;;;;;;;;;;5099764;28;20054;-91
2022/11/21 07:43:25;;;;;;;1.70;1.60;;;;;;;;;;5099740;28;20070;-92
2022/11/21 07:45:52;;;;;;;1.98;1.85;;;;;;;;;;5098934;28;20055;-91
2022/11/21 07:48:20;;;;;;;3.17;1.67;;;;;;;;;;5099604;28;20050;-91
2022/11/21 07:50:47;;;;;;;2.00;1.90;;;;;;;;;;5099441;28;20392;-92
2022/11/21 07:53:14;;;;;;;2.10;2.00;;;;;;;;;;5099318;28;20052;-91
2022/11/21 07:55:41;;;;;;;3.05;2.25;;;;;;;;;;5099446;28;20139;-91
2022/11/21 07:58:12;;;;;;;2.47;1.95;;;;;;;;;;5099578;28;20071;-91
2022/11/21 08:00:43;;;;;;;2.30;2.20;;;;;;;;;;5099132;28;20441;-92
2022/11/21 08:03:11;;;;;;;2.33;2.22;;;;;;;;;;5099292;28;20571;-92
2022/11/21 08:05:42;;;;;;;3.28;2.10;;;;;;;;;;5099300;28;20078;-92
2022/11/21 08:08:10;;;;;;;5.65;5.20;;;;;;;;;;5099239;28;20051;-92
2022/11/21 08:10:44;;;;;;;2.28;2.17;;;;;;;;;;5099063;28;20058;-91
2022/11/21 08:13:12;;;;;;;3.38;3.08;;;;;;;;;;5098975;28;20044;-91
2022/11/21 08:15:39;;;;;;;7.85;7.18;;;;;;;;;;5099216;28;20050;-91
2022/11/21 08:18:09;;;;;;;2.58;2.25;;;;;;;;;;5099145;28;20054;-91
2022/11/21 08:20:39;;;;;;;2.85;2.63;;;;;;;;;;5112778;28;20044;-91
2022/11/21 08:23:08;;;;;;;3.22;2.45;;;;;;;;;;5104250;28;20057;-91
2022/11/21 08:25:39;;;;;;;3.28;3.00;;;;;;;;;;5098493;28;20423;-91
2022/11/21 08:28:10;;;;;;;3.33;3.13;;;;;;;;;;5099044;28;20435;-91
2022/11/21 08:30:38;;;;;;;4.32;3.92;;;;;;;;;;5098642;28;20510;-90
2022/11/21 08:33:06;;;;;;;4.22;3.55;;;;;;;;;;5098583;28;20047;-90
2022/11/21 08:35:35;;;;;;;3.83;3.50;;;;;;;;;;5097501;28;20415;-90
2022/11/21 08:38:02;;;;;;;3.88;3.58;;;;;;;;;;5098431;28;20051;-90
2022/11/21 08:40:30;;;;;;;5.95;4.85;;;;;;;;;;5098382;28;20055;-91
2022/11/21 08:42:57;;;;;;;5.18;4.13;;;;;;;;;;5098348;28;20047;-90
2022/11/21 08:45:24;;;;;;;5.13;4.60;;;;;;;;;;5098216;28;20051;-90
2022/11/21 08:47:52;;;;;;;5.55;4.38;;;;;;;;;;5098392;28;20077;-90
2022/11/21 08:50:20;;;;;;;4.38;3.97;;;;;;;;;;5098091;28;20058;-90
2022/11/21 08:52:48;;;;;;;5.25;3.85;;;;;;;;;;5097966;28;20050;-90
2022/11/21 08:55:15;;;;;;;4.53;3.65;;;;;;;;;;5098222;28;20051;-90
2022/11/21 08:57:42;;;;;;;6.55;3.67;;;;;;;;;;5098293;28;20055;-90
2022/11/21 09:00:13;;;;;;;3.22;3.03;;;;;;;;;;5098089;28;20086;-89
2022/11/21 09:02:43;;;;;;;5.57;3.13;;;;;;;;;;5098738;28;20147;-90
2022/11/21 09:05:10;;;;;;;4.45;4.05;;;;;;;;;;5098075;28;20135;-90
2022/11/21 09:07:40;;;;;;;4.45;3.38;;;;;;;;;;5098155;28;20049;-90
2022/11/21 09:10:07;;;;;;;3.00;2.80;;;;;;;;;;5100299;28;20051;-91
2022/11/21 09:12:34;;;;;;;3.50;3.20;;;;;;;;;;5101168;28;20047;-90
2022/11/21 09:18:03;;;;;;;6.45;2.80;;;;;;;;;;5095251;28;20399;-89
2022/11/21 09:20:37;;;;;;;2.63;2.42;;;;;;;;;;5077665;28;20051;-89
2022/11/21 09:23:05;;;;;;;2.90;2.40;;;;;;;;;;5077439;28;20044;-90
2022/11/21 09:25:33;;;;;;;3.28;3.03;;;;;;;;;;5077345;28;20138;-90
2022/11/21 09:28:02;;;;;;;2.70;2.35;;;;;;;;;;5077738;28;20054;-90
2022/11/21 09:30:29;;;;;;;6.53;1.75;;;;;;;;;;5077508;28;20055;-92
2022/11/21 09:33:00;;;;;;;1.77;1.67;;;;;;;;;;5077706;28;20553;-90
2022/11/21 09:35:28;;;;;;;1.80;1.70;;;;;;;;;;5094182;28;20032;-89
2022/11/21 09:37:55;;;;;;;2.92;1.90;;;;;;;;;;5078094;28;20044;-89
2022/11/21 09:40:23;;;;;;;1.67;1.65;;;;;;;;;;5077211;28;20523;-90
2022/11/21 09:42:58;;;;;;;1.77;1.67;;;;;;;;;;5076912;28;20132;-89
2022/11/21 09:45:26;;;;;;;1.90;1.80;;;;;;;;;;5076956;28;20067;-90
2022/11/21 09:47:54;;;;;;;3.40;3.10;;;;;;;;;;5076706;28;20090;-89
2022/11/21 09:50:31;;;;;;;3.25;2.95;;;;;;;;;;5077010;28;20048;-89
2022/11/21 09:53:06;;;;;;;1.85;1.75;;;;;;;;;;5076688;28;20070;-90
2022/11/21 09:55:34;;;;;;;3.20;2.17;;;;;;;;;;5076886;28;20142;-90
2022/11/21 09:58:06;;;;;;;1.98;1.88;;;;;;;;;;5076741;28;20050;-90
2022/11/21 10:00:33;;;;;;;2.35;1.95;;;;;;;;;;5076672;28;20062;-89
2022/11/21 10:03:00;;;;;;;2.63;2.47;;;;;;;;;;5076969;28;20044;-89
2022/11/21 10:05:46;;;;;;;1.88;1.80;;;;;;;;;;5076432;28;20051;-89
2022/11/21 10:08:26;;;;;;;1.50;1.50;;;;;;;;;;5076583;28;20499;-90
2022/11/21 10:10:55;;;;;;;1.70;1.60;;;;;;;;;;5076203;28;20066;-89
2022/11/21 10:13:42;;;;;;;2.75;1.48;;;;;;;;;;5076265;28;20047;-90
2022/11/21 10:16:18;;;;;;;2.47;1.88;;;;;;;;;;5063006;28;20059;-90
2022/11/21 10:18:51;;;;;;;1.73;1.63;;;;;;;;;;5076319;28;20059;-90
2022/11/21 10:21:36;;;;;;;1.58;1.40;;;;;;;;;;5076412;28;20062;-90
2022/11/21 10:24:12;;;;;;;1.40;1.40;;;;;;;;;;5076114;28;20052;-89
2022/11/21 10:26:58;;;;;;;1.33;1.33;;;;;;;;;;5075869;28;20054;-90
2022/11/21 10:29:36;;;;;;;1.25;1.20;;;;;;;;;;5076219;28;20048;-90
2022/11/21 10:32:14;;;;;;;1.77;1.50;;;;;;;;;;5076077;28;20052;-89
2022/11/21 10:34:42;;;;;;;1.33;1.33;;;;;;;;;;5076327;28;20055;-89
2022/11/21 10:37:26;;;;;;;1.00;1.00;;;;;;;;;;5075728;28;20400;-90
2022/11/21 10:39:54;;;;;;;1.10;1.10;;;;;;;;;;5076469;28;20056;-89
2022/11/21 10:42:29;;;;;;;1.30;1.20;;;;;;;;;;5076425;28;20044;-89
2022/11/21 10:45:18;;;;;;;1.30;1.20;;;;;;;;;;5075164;28;20048;-89
2022/11/21 10:47:46;;;;;;;0.93;0.93;;;;;;;;;;5075960;28;20052;-89
2022/11/21 10:50:32;;;;;;;1.00;1.00;;;;;;;;;;5092266;28;20050;-89
2022/11/21 10:56:04;;;;;;;1.30;1.20;;;;;;;;;;5093787;28;20372;-89
2022/11/21 10:58:42;;;;;;;1.00;1.00;;;;;;;;;;5076069;28;20059;-89
2022/11/21 11:01:25;;;;;;;2.08;1.20;;;;;;;;;;5080164;28;20503;-89
2022/11/21 11:04:07;;;;;;;1.75;0.98;;;;;;;;;;5080386;28;20055;-89
2022/11/21 11:06:55;;;;;;;2.03;1.10;;;;;;;;;;5082296;28;20056;-89
2022/11/21 11:09:27;;;;;;;1.08;1.00;;;;;;;;;;5079960;28;20039;-89
2022/11/21 11:12:14;;;;;;;1.13;1.00;;;;;;;;;;5079893;28;20055;-86
2022/11/21 11:14:49;;;;;;;0.95;0.70;;;;;;;;;;5079769;28;20085;-86
2022/11/21 11:17:16;;;;;;;1.85;0.70;;;;;;;;;;5079759;28;20058;-87
2022/11/21 11:19:59;;;;;;;0.90;0.60;;;;;;;;;;5079757;28;20055;-86
2022/11/21 11:22:28;;;;;;;0.60;0.60;;;;;;;;;;5079492;28;20488;-86
2022/11/21 11:24:55;;;;;;;0.77;0.77;;;;;;;;;;5079306;28;20359;-87
2022/11/21 11:27:27;;;;;;;1.52;0.70;;;;;;;;;;5080486;28;20067;-86
2022/11/21 11:29:55;;;;;;;0.95;0.77;;;;;;;;;;5079407;28;20048;-87
2022/11/21 11:32:22;;;;;;;0.82;0.50;;;;;;;;;;5079398;28;20048;-85
2022/11/21 11:34:56;;;;;;;0.63;0.63;;;;;;;;;;5079191;28;20048;-86
2022/11/21 11:37:32;;;;;;;0.90;0.90;;;;;;;;;;5079334;28;20082;-85
2022/11/21 11:40:07;;;;;;;;;;;;;;;;;;5080628;28;20101;-87
2022/11/21 11:48:28;;;;;;;2.15;2.05;;;;;;;;;;5068460;28;20048;-87
2022/11/21 11:50:59;;;;;;;2.33;2.22;;;;;;;;;;5079024;28;20062;-89
2022/11/21 11:53:26;;;;;;;2.33;2.22;;;;;;;;;;5079142;28;20056;-89
2022/11/21 11:55:53;;;;;;;2.30;2.20;;;;;;;;;;5078915;28;20492;-88
2022/11/21 11:58:24;;;;;;;3.10;2.80;;;;;;;;;;5078638;28;20059;-88
2022/11/21 12:00:57;;;;;;;2.75;2.50;;;;;;;;;;5078684;28;20502;-88
2022/11/21 12:03:25;;;;;;;;;;;;;;;;;;5093459;28;20044;-89
2022/11/21 12:06:00;;;;;;;2.50;2.40;;;;;;;;;;5100984;28;19934;-89
2022/11/21 12:08:39;;;;;;;2.72;2.53;;;;;;;;;;5079832;28;20071;-89
2022/11/21 12:14:04;;;;;;;2.40;2.30;;;;;;;;;;5102322;28;20052;-88
2022/11/21 12:16:31;;;;;;;2.28;2.17;;;;;;;;;;5084068;28;20052;-88
2022/11/21 12:19:02;;;;;;;2.10;1.98;;;;;;;;;;5077437;28;20063;-89
2022/11/21 12:21:29;;;;;;;2.45;2.35;;;;;;;;;;5078689;28;20408;-89
2022/11/21 12:23:57;;;;;;;2.42;2.25;;;;;;;;;;5078577;28;20067;-89
2022/11/21 12:26:28;;;;;;;2.30;2.13;;;;;;;;;;5078357;28;20052;-88
2022/11/21 12:28:58;;;;;;;2.40;2.30;;;;;;;;;;5078273;28;20059;-89
2022/11/21 12:31:30;;;;;;;2.63;2.50;;;;;;;;;;5077941;28;20052;-88
2022/11/21 12:34:09;;;;;;;2.00;1.90;;;;;;;;;;5078184;28;20055;-88
2022/11/21 12:36:45;;;;;;;2.53;2.33;;;;;;;;;;5077996;28;20052;-88
2022/11/21 12:39:28;;;;;;;6.00;2.13;;;;;;;;;;5078099;28;20048;-88
2022/11/21 12:44:54;;;;;;;2.55;1.20;;;;;;;;;;5095295;28;20055;-87
2022/11/21 12:54:29;;;;;;;1.60;1.42;;;;;;;;;;5077449;28;20058;-87
2022/11/21 12:56:26;;;;;;;1.48;1.38;;;;;;;;;;5095537;28;20040;-88
2022/11/21 12:58:54;;;;;;;4.93;2.13;;;;;;;;;;5077000;28;20052;-88
2022/11/21 13:01:24;;;;;;;2.75;1.58;;;;;;;;;;5077609;28;20067;-88
2022/11/21 13:04:00;;;;;;;1.30;1.20;;;;;;;;;;5077440;28;20044;-88
2022/11/21 13:06:28;;;;;;;14.40;2.75;;;;;;;;;;5095339;28;20058;-88
2022/11/21 13:08:56;;;;;;;4.20;1.60;;;;;;;;;;5077390;28;20048;-88
2022/11/21 13:14:29;;;;;;;3.47;1.50;;;;;;;;;;5095232;28;20275;-88
2022/11/21 13:17:06;;;;;;;4.65;1.70;;;;;;;;;;5084129;28;20032;-88
2022/11/21 13:19:37;;;;;;;1.17;1.13;;;;;;;;;;5102936;28;20040;-88
2022/11/21 13:22:04;;;;;;;2.72;1.60;;;;;;;;;;5076954;28;20487;-88
2022/11/21 13:24:44;;;;;;;1.30;1.20;;;;;;;;;;5077366;28;20048;-87
2022/11/21 13:27:28;;;;;;;1.23;1.20;;;;;;;;;;5077001;28;20502;-88
2022/11/21 13:30:04;;;;;;;2.42;1.40;;;;;;;;;;5077655;28;20085;-88
2022/11/21 13:32:41;;;;;;;2.50;2.30;;;;;;;;;;5077004;28;20048;-88
2022/11/21 13:35:20;;;;;;;7.45;3.00;;;;;;;;;;5076948;28;20044;-87
2022/11/21 13:37:54;;;;;;;9.02;3.60;;;;;;;;;;5076920;28;20048;-88
2022/11/21 13:40:30;;;;;;;12.30;2.42;;;;;;;;;;5076829;28;20040;-88
2022/11/21 13:43:12;;;;;;;3.22;1.88;;;;;;;;;;5076794;28;20055;-87
2022/11/21 13:46:00;;;;;;;5.25;2.10;;;;;;;;;;5079163;28;20549;-88
2022/11/21 13:48:27;;;;;;;4.38;2.25;;;;;;;;;;5076673;28;20048;-88
2022/11/21 13:51:03;;;;;;;2.13;1.70;;;;;;;;;;5076217;28;20599;-87
2022/11/21 13:53:37;;;;;;;1.60;1.50;;;;;;;;;;5076159;28;20477;-87
2022/11/21 13:56:23;;;;;;;1.67;1.50;;;;;;;;;;5076102;28;20048;-88
2022/11/21 13:59:05;;;;;;;1.55;1.45;;;;;;;;;;5075420;28;20050;-87
2022/11/21 14:01:51;;;;;;;6.25;2.22;;;;;;;;;;5092673;28;20052;-88
2022/11/21 14:04:19;;;;;;;2.17;1.75;;;;;;;;;;5076303;28;20040;-87
2022/11/21 14:06:47;;;;;;;1.38;1.27;;;;;;;;;;5076317;28;20051;-88
2022/11/21 14:09:20;;;;;;;2.78;1.90;;;;;;;;;;5076513;28;20055;-88
2022/11/21 14:11:49;;;;;;;16.05;2.47;;;;;;;;;;5076361;28;20052;-88
2022/11/21 14:14:24;;;;;;;4.25;2.13;;;;;;;;;;5076454;28;20052;-88
2022/11/21 14:16:56;;;;;;;3.42;2.40;;;;;;;;;;5076164;28;20048;-87
2022/11/21 14:19:24;;;;;;;4.57;2.95;;;;;;;;;;5094119;28;20048;-88
2022/11/21 14:21:54;;;;;;;7.22;2.90;;;;;;;;;;5076302;28;20048;-88
2022/11/21 14:24:21;;;;;;;13.15;2.70;;;;;;;;;;5078071;28;20044;-87
2022/11/21 14:26:50;;;;;;;9.10;2.50;;;;;;;;;;5093879;28;20381;-88
2022/11/21 14:29:17;;;;;;;9.80;2.30;;;;;;;;;;5094294;28;20067;-88
2022/11/21 14:31:46;;;;;;;10.88;3.00;;;;;;;;;;5090012;28;20074;-87
2022/11/21 14:34:23;;;;;;;5.88;2.22;;;;;;;;;;5081737;28;20133;-87
2022/11/21 14:36:50;;;;;;;6.55;2.30;;;;;;;;;;5093461;28;20411;-87
2022/11/21 14:39:19;;;;;;;3.85;2.25;;;;;;;;;;5075845;28;20048;-87
2022/11/21 14:42:06;;;;;;;3.50;2.03;;;;;;;;;;5078769;28;20629;-87
2022/11/21 14:44:34;;;;;;;2.42;1.35;;;;;;;;;;5076000;28;20407;-88
2022/11/21 14:47:02;;;;;;;2.17;1.52;;;;;;;;;;5075732;28;20496;-87
2022/11/21 14:49:30;;;;;;;1.88;1.70;;;;;;;;;;5093744;28;20058;-87
2022/11/21 14:52:10;;;;;;;2.78;1.77;;;;;;;;;;5076514;28;20052;-87
2022/11/21 14:54:55;;;;;;;6.32;3.20;;;;;;;;;;5075473;28;20136;-88
2022/11/21 14:57:42;;;;;;;6.65;2.70;;;;;;;;;;5093234;28;20047;-88
2022/11/21 15:00:13;;;;;;;2.63;1.73;;;;;;;;;;5075716;28;20071;-88
2022/11/21 15:03:01;;;;;;;3.35;1.95;;;;;;;;;;5078944;28;20052;-88
2022/11/21 15:05:31;;;;;;;4.07;3.25;;;;;;;;;;5075833;28;20052;-88
2022/11/21 15:08:24;;;;;;;4.00;3.70;;;;;;;;;;5093301;28;20044;-88
2022/11/21 15:11:16;;;;;;;6.22;3.20;;;;;;;;;;5079326;28;20056;-88
2022/11/21 15:13:46;;;;;;;3.45;2.20;;;;;;;;;;5076858;28;20051;-88
2022/11/21 15:16:33;;;;;;;3.20;2.88;;;;;;;;;;5093013;28;20055;-87
2022/11/21 15:19:00;;;;;;;5.60;3.58;;;;;;;;;;5075750;28;20058;-88
2022/11/21 15:21:27;;;;;;;5.90;3.15;;;;;;;;;;5093149;28;20059;-88
2022/11/21 15:23:55;;;;;;;16.70;12.43;;;;;;;;;;5075449;28;20048;-87
2022/11/21 15:26:30;;;;;;;5.10;3.15;;;;;;;;;;5092087;28;20308;-88
2022/11/21 15:28:58;;;;;;;41.03;28.42;;;;;;;;;;5075259;28;20056;-87
2022/11/21 15:31:26;;;;;;;5.10;4.03;;;;;;;;;;5093501;28;20048;-87
2022/11/21 15:33:53;;;;;;;5.88;4.50;;;;;;;;;;5075566;28;20052;-87